sensor_id;sensor_type;location;lat;lon;timestamp;P1;durP1;ratioP1;P2;durP2;ratioP2
58071;SDS011;60383;46.626;18.866;2024-03-08T00:00:58;14.60;;;10.77;;
58071;SDS011;60383;46.626;18.866;2024-03-08T00:03:24;15.68;;;11.45;;
58071;SDS011;60383;46.626;18.866;2024-03-08T00:05:49;15.10;;;10.73;;
58071;SDS011;60383;46.626;18.866;2024-03-08T00:08:14;15.82;;;10.50;;
58071;SDS011;60383;46.626;18.866;2024-03-08T00:10:40;15.02;;;10.98;;
58071;SDS011;60383;46.626;18.866;2024-03-08T00:13:05;15.23;;;10.23;;
58071;SDS011;60383;46.626;18.866;2024-03-08T00:15:31;15.40;;;10.90;;
58071;SDS011;60383;46.626;18.866;2024-03-08T00:17:57;16.13;;;10.57;;
58071;SDS011;60383;46.626;18.866;2024-03-08T00:20:23;15.35;;;11.07;;
58071;SDS011;60383;46.626;18.866;2024-03-08T00:22:48;15.95;;;11.60;;
58071;SDS011;60383;46.626;18.866;2024-03-08T00:25:14;15.68;;;11.13;;
58071;SDS011;60383;46.626;18.866;2024-03-08T00:27:40;17.48;;;12.27;;
58071;SDS011;60383;46.626;18.866;2024-03-08T00:30:06;15.90;;;11.73;;
58071;SDS011;60383;46.626;18.866;2024-03-08T00:32:33;16.58;;;10.73;;
58071;SDS011;60383;46.626;18.866;2024-03-08T00:34:58;13.88;;;10.10;;
58071;SDS011;60383;46.626;18.866;2024-03-08T00:37:24;16.75;;;11.15;;
58071;SDS011;60383;46.626;18.866;2024-03-08T00:39:50;15.23;;;10.68;;
58071;SDS011;60383;46.626;18.866;2024-03-08T00:42:17;16.15;;;10.38;;
58071;SDS011;60383;46.626;18.866;2024-03-08T00:44:43;16.25;;;10.77;;
58071;SDS011;60383;46.626;18.866;2024-03-08T00:47:08;17.45;;;11.02;;
58071;SDS011;60383;46.626;18.866;2024-03-08T00:49:34;14.45;;;10.82;;
58071;SDS011;60383;46.626;18.866;2024-03-08T00:52:01;15.57;;;10.95;;
58071;SDS011;60383;46.626;18.866;2024-03-08T00:54:27;14.45;;;10.45;;
58071;SDS011;60383;46.626;18.866;2024-03-08T00:56:52;16.27;;;11.32;;
58071;SDS011;60383;46.626;18.866;2024-03-08T00:59:18;15.77;;;11.25;;
58071;SDS011;60383;46.626;18.866;2024-03-08T01:01:43;17.92;;;10.68;;
58071;SDS011;60383;46.626;18.866;2024-03-08T01:04:09;15.82;;;11.63;;
58071;SDS011;60383;46.626;18.866;2024-03-08T01:06:35;17.27;;;11.93;;
58071;SDS011;60383;46.626;18.866;2024-03-08T01:09:01;19.42;;;12.20;;
58071;SDS011;60383;46.626;18.866;2024-03-08T01:11:27;19.00;;;12.10;;
58071;SDS011;60383;46.626;18.866;2024-03-08T01:13:53;15.45;;;11.35;;
58071;SDS011;60383;46.626;18.866;2024-03-08T01:16:19;17.10;;;11.77;;
58071;SDS011;60383;46.626;18.866;2024-03-08T01:18:46;17.33;;;11.68;;
58071;SDS011;60383;46.626;18.866;2024-03-08T01:21:12;17.27;;;11.90;;
58071;SDS011;60383;46.626;18.866;2024-03-08T01:23:38;16.42;;;11.30;;
58071;SDS011;60383;46.626;18.866;2024-03-08T01:26:04;17.88;;;12.07;;
58071;SDS011;60383;46.626;18.866;2024-03-08T01:28:30;18.20;;;11.95;;
58071;SDS011;60383;46.626;18.866;2024-03-08T01:30:55;19.98;;;12.65;;
58071;SDS011;60383;46.626;18.866;2024-03-08T01:33:22;19.30;;;12.40;;
58071;SDS011;60383;46.626;18.866;2024-03-08T01:35:48;19.60;;;13.48;;
58071;SDS011;60383;46.626;18.866;2024-03-08T01:38:14;20.67;;;13.98;;
58071;SDS011;60383;46.626;18.866;2024-03-08T01:40:40;23.30;;;15.10;;
58071;SDS011;60383;46.626;18.866;2024-03-08T01:43:22;22.88;;;14.35;;
58071;SDS011;60383;46.626;18.866;2024-03-08T01:45:52;23.13;;;14.60;;
58071;SDS011;60383;46.626;18.866;2024-03-08T01:48:18;22.60;;;14.50;;
58071;SDS011;60383;46.626;18.866;2024-03-08T01:50:47;23.65;;;15.15;;
58071;SDS011;60383;46.626;18.866;2024-03-08T01:53:12;26.63;;;16.10;;
58071;SDS011;60383;46.626;18.866;2024-03-08T01:55:40;21.90;;;14.13;;
58071;SDS011;60383;46.626;18.866;2024-03-08T01:58:07;21.13;;;14.25;;
58071;SDS011;60383;46.626;18.866;2024-03-08T02:00:35;19.98;;;13.85;;
58071;SDS011;60383;46.626;18.866;2024-03-08T02:03:01;20.38;;;13.60;;
58071;SDS011;60383;46.626;18.866;2024-03-08T02:05:27;20.90;;;13.45;;
58071;SDS011;60383;46.626;18.866;2024-03-08T02:07:53;21.00;;;13.73;;
58071;SDS011;60383;46.626;18.866;2024-03-08T02:10:19;21.02;;;13.77;;
58071;SDS011;60383;46.626;18.866;2024-03-08T02:12:45;19.63;;;13.00;;
58071;SDS011;60383;46.626;18.866;2024-03-08T02:15:11;21.88;;;13.93;;
58071;SDS011;60383;46.626;18.866;2024-03-08T02:17:37;21.70;;;13.77;;
58071;SDS011;60383;46.626;18.866;2024-03-08T02:20:02;20.88;;;13.68;;
58071;SDS011;60383;46.626;18.866;2024-03-08T02:22:30;22.00;;;13.50;;
58071;SDS011;60383;46.626;18.866;2024-03-08T02:24:58;20.48;;;13.13;;
58071;SDS011;60383;46.626;18.866;2024-03-08T02:27:24;21.77;;;13.85;;
58071;SDS011;60383;46.626;18.866;2024-03-08T02:29:56;20.98;;;13.30;;
58071;SDS011;60383;46.626;18.866;2024-03-08T02:32:25;20.63;;;13.40;;
58071;SDS011;60383;46.626;18.866;2024-03-08T02:34:50;20.23;;;13.23;;
58071;SDS011;60383;46.626;18.866;2024-03-08T02:37:16;22.20;;;14.95;;
58071;SDS011;60383;46.626;18.866;2024-03-08T02:39:42;23.92;;;14.35;;
58071;SDS011;60383;46.626;18.866;2024-03-08T02:42:08;23.08;;;14.48;;
58071;SDS011;60383;46.626;18.866;2024-03-08T02:44:33;20.17;;;13.73;;
58071;SDS011;60383;46.626;18.866;2024-03-08T02:46:59;20.85;;;13.80;;
58071;SDS011;60383;46.626;18.866;2024-03-08T02:49:25;24.15;;;14.15;;
58071;SDS011;60383;46.626;18.866;2024-03-08T02:51:53;22.10;;;14.10;;
58071;SDS011;60383;46.626;18.866;2024-03-08T02:54:19;21.05;;;13.75;;
58071;SDS011;60383;46.626;18.866;2024-03-08T02:56:45;21.83;;;13.75;;
58071;SDS011;60383;46.626;18.866;2024-03-08T02:59:11;23.85;;;13.70;;
58071;SDS011;60383;46.626;18.866;2024-03-08T03:01:38;23.67;;;14.70;;
58071;SDS011;60383;46.626;18.866;2024-03-08T03:04:04;23.80;;;14.45;;
58071;SDS011;60383;46.626;18.866;2024-03-08T03:06:29;24.25;;;13.95;;
58071;SDS011;60383;46.626;18.866;2024-03-08T03:08:56;26.77;;;15.52;;
58071;SDS011;60383;46.626;18.866;2024-03-08T03:11:22;28.83;;;16.02;;
58071;SDS011;60383;46.626;18.866;2024-03-08T03:13:48;28.23;;;15.40;;
58071;SDS011;60383;46.626;18.866;2024-03-08T03:16:19;27.13;;;16.80;;
58071;SDS011;60383;46.626;18.866;2024-03-08T03:18:45;27.73;;;16.33;;
58071;SDS011;60383;46.626;18.866;2024-03-08T03:21:12;28.38;;;16.50;;
58071;SDS011;60383;46.626;18.866;2024-03-08T03:23:39;29.63;;;17.27;;
58071;SDS011;60383;46.626;18.866;2024-03-08T03:26:05;30.77;;;17.15;;
58071;SDS011;60383;46.626;18.866;2024-03-08T03:28:35;25.52;;;15.95;;
58071;SDS011;60383;46.626;18.866;2024-03-08T03:31:05;29.02;;;16.00;;
58071;SDS011;60383;46.626;18.866;2024-03-08T03:33:31;27.58;;;16.38;;
58071;SDS011;60383;46.626;18.866;2024-03-08T03:35:59;26.50;;;16.10;;
58071;SDS011;60383;46.626;18.866;2024-03-08T03:38:26;33.38;;;17.95;;
58071;SDS011;60383;46.626;18.866;2024-03-08T03:40:53;27.65;;;17.92;;
58071;SDS011;60383;46.626;18.866;2024-03-08T03:43:22;31.45;;;16.95;;
58071;SDS011;60383;46.626;18.866;2024-03-08T03:45:48;29.88;;;17.55;;
58071;SDS011;60383;46.626;18.866;2024-03-08T03:48:13;29.10;;;17.20;;
58071;SDS011;60383;46.626;18.866;2024-03-08T03:50:39;27.38;;;16.38;;
58071;SDS011;60383;46.626;18.866;2024-03-08T03:53:05;28.08;;;17.05;;
58071;SDS011;60383;46.626;18.866;2024-03-08T03:55:34;25.92;;;16.73;;
58071;SDS011;60383;46.626;18.866;2024-03-08T03:58:01;28.27;;;17.65;;
58071;SDS011;60383;46.626;18.866;2024-03-08T04:00:27;31.35;;;17.73;;
58071;SDS011;60383;46.626;18.866;2024-03-08T04:02:53;33.17;;;17.73;;
58071;SDS011;60383;46.626;18.866;2024-03-08T04:05:19;32.60;;;18.83;;
58071;SDS011;60383;46.626;18.866;2024-03-08T04:07:45;31.52;;;18.08;;
58071;SDS011;60383;46.626;18.866;2024-03-08T04:10:11;29.23;;;16.83;;
58071;SDS011;60383;46.626;18.866;2024-03-08T04:12:37;29.35;;;17.20;;
58071;SDS011;60383;46.626;18.866;2024-03-08T04:15:02;27.63;;;17.38;;
58071;SDS011;60383;46.626;18.866;2024-03-08T04:17:30;28.83;;;17.00;;
58071;SDS011;60383;46.626;18.866;2024-03-08T04:19:56;28.92;;;17.25;;
58071;SDS011;60383;46.626;18.866;2024-03-08T04:22:22;26.85;;;16.98;;
58071;SDS011;60383;46.626;18.866;2024-03-08T04:24:47;30.67;;;17.10;;
58071;SDS011;60383;46.626;18.866;2024-03-08T04:27:13;27.02;;;17.80;;
58071;SDS011;60383;46.626;18.866;2024-03-08T04:29:40;29.90;;;18.30;;
58071;SDS011;60383;46.626;18.866;2024-03-08T04:32:06;28.15;;;17.65;;
58071;SDS011;60383;46.626;18.866;2024-03-08T04:34:33;29.48;;;18.00;;
58071;SDS011;60383;46.626;18.866;2024-03-08T04:36:59;30.23;;;17.33;;
58071;SDS011;60383;46.626;18.866;2024-03-08T04:39:26;29.08;;;17.65;;
58071;SDS011;60383;46.626;18.866;2024-03-08T04:41:55;26.75;;;17.20;;
58071;SDS011;60383;46.626;18.866;2024-03-08T04:44:24;27.00;;;18.23;;
58071;SDS011;60383;46.626;18.866;2024-03-08T04:46:49;30.75;;;18.63;;
58071;SDS011;60383;46.626;18.866;2024-03-08T04:49:15;29.05;;;17.35;;
58071;SDS011;60383;46.626;18.866;2024-03-08T04:51:40;29.20;;;17.08;;
58071;SDS011;60383;46.626;18.866;2024-03-08T04:54:06;30.00;;;17.45;;
58071;SDS011;60383;46.626;18.866;2024-03-08T04:56:31;28.50;;;17.20;;
58071;SDS011;60383;46.626;18.866;2024-03-08T04:58:58;27.55;;;17.88;;
58071;SDS011;60383;46.626;18.866;2024-03-08T05:01:23;28.98;;;18.25;;
58071;SDS011;60383;46.626;18.866;2024-03-08T05:03:49;29.48;;;18.08;;
58071;SDS011;60383;46.626;18.866;2024-03-08T05:06:15;28.48;;;17.48;;
58071;SDS011;60383;46.626;18.866;2024-03-08T05:08:41;29.95;;;18.23;;
58071;SDS011;60383;46.626;18.866;2024-03-08T05:11:06;32.17;;;18.77;;
58071;SDS011;60383;46.626;18.866;2024-03-08T05:13:32;30.75;;;18.75;;
58071;SDS011;60383;46.626;18.866;2024-03-08T05:15:59;30.33;;;18.35;;
58071;SDS011;60383;46.626;18.866;2024-03-08T05:18:25;30.83;;;18.48;;
58071;SDS011;60383;46.626;18.866;2024-03-08T05:20:50;34.95;;;19.48;;
58071;SDS011;60383;46.626;18.866;2024-03-08T05:23:16;32.33;;;18.92;;
58071;SDS011;60383;46.626;18.866;2024-03-08T05:25:44;34.75;;;20.05;;
58071;SDS011;60383;46.626;18.866;2024-03-08T05:28:12;35.92;;;20.27;;
58071;SDS011;60383;46.626;18.866;2024-03-08T05:30:38;31.55;;;19.52;;
58071;SDS011;60383;46.626;18.866;2024-03-08T05:33:03;31.25;;;18.83;;
58071;SDS011;60383;46.626;18.866;2024-03-08T05:35:29;30.23;;;18.95;;
58071;SDS011;60383;46.626;18.866;2024-03-08T05:37:55;34.60;;;19.35;;
58071;SDS011;60383;46.626;18.866;2024-03-08T05:40:21;28.75;;;18.30;;
58071;SDS011;60383;46.626;18.866;2024-03-08T05:42:46;30.77;;;19.48;;
58071;SDS011;60383;46.626;18.866;2024-03-08T05:45:11;28.25;;;16.75;;
58071;SDS011;60383;46.626;18.866;2024-03-08T05:47:38;23.52;;;15.90;;
58071;SDS011;60383;46.626;18.866;2024-03-08T05:50:04;22.83;;;15.40;;
58071;SDS011;60383;46.626;18.866;2024-03-08T05:52:32;24.15;;;15.25;;
58071;SDS011;60383;46.626;18.866;2024-03-08T05:54:58;22.20;;;14.23;;
58071;SDS011;60383;46.626;18.866;2024-03-08T05:57:23;23.15;;;15.50;;
58071;SDS011;60383;46.626;18.866;2024-03-08T05:59:49;21.38;;;14.25;;
58071;SDS011;60383;46.626;18.866;2024-03-08T06:02:14;19.80;;;14.18;;
58071;SDS011;60383;46.626;18.866;2024-03-08T06:04:44;19.67;;;13.68;;
58071;SDS011;60383;46.626;18.866;2024-03-08T06:07:12;21.15;;;14.48;;
58071;SDS011;60383;46.626;18.866;2024-03-08T06:09:37;19.85;;;13.45;;
58071;SDS011;60383;46.626;18.866;2024-03-08T06:12:03;18.15;;;13.65;;
58071;SDS011;60383;46.626;18.866;2024-03-08T06:14:29;20.52;;;13.05;;
58071;SDS011;60383;46.626;18.866;2024-03-08T06:16:55;21.42;;;14.38;;
58071;SDS011;60383;46.626;18.866;2024-03-08T06:19:20;20.13;;;13.43;;
58071;SDS011;60383;46.626;18.866;2024-03-08T06:21:46;21.05;;;14.25;;
58071;SDS011;60383;46.626;18.866;2024-03-08T06:24:11;21.38;;;13.82;;
58071;SDS011;60383;46.626;18.866;2024-03-08T06:26:37;19.13;;;13.35;;
58071;SDS011;60383;46.626;18.866;2024-03-08T06:29:03;19.38;;;13.43;;
58071;SDS011;60383;46.626;18.866;2024-03-08T06:31:31;18.73;;;13.60;;
58071;SDS011;60383;46.626;18.866;2024-03-08T06:33:57;20.10;;;14.30;;
58071;SDS011;60383;46.626;18.866;2024-03-08T06:36:23;22.58;;;14.57;;
58071;SDS011;60383;46.626;18.866;2024-03-08T06:38:49;20.13;;;14.60;;
58071;SDS011;60383;46.626;18.866;2024-03-08T06:41:15;19.52;;;12.82;;
58071;SDS011;60383;46.626;18.866;2024-03-08T06:43:44;20.50;;;13.57;;
58071;SDS011;60383;46.626;18.866;2024-03-08T06:46:10;21.30;;;14.48;;
58071;SDS011;60383;46.626;18.866;2024-03-08T06:48:39;21.55;;;14.82;;
58071;SDS011;60383;46.626;18.866;2024-03-08T06:51:05;23.02;;;14.90;;
58071;SDS011;60383;46.626;18.866;2024-03-08T06:53:30;22.30;;;15.00;;
58071;SDS011;60383;46.626;18.866;2024-03-08T06:55:56;21.45;;;14.43;;
58071;SDS011;60383;46.626;18.866;2024-03-08T06:58:25;23.27;;;14.43;;
58071;SDS011;60383;46.626;18.866;2024-03-08T07:00:50;21.27;;;13.73;;
58071;SDS011;60383;46.626;18.866;2024-03-08T07:03:17;21.40;;;14.55;;
58071;SDS011;60383;46.626;18.866;2024-03-08T07:05:43;20.52;;;14.20;;
58071;SDS011;60383;46.626;18.866;2024-03-08T07:08:08;25.85;;;15.65;;
58071;SDS011;60383;46.626;18.866;2024-03-08T07:10:34;22.92;;;14.73;;
58071;SDS011;60383;46.626;18.866;2024-03-08T07:13:00;22.95;;;14.55;;
58071;SDS011;60383;46.626;18.866;2024-03-08T07:15:27;22.33;;;14.65;;
58071;SDS011;60383;46.626;18.866;2024-03-08T07:17:53;23.67;;;14.68;;
58071;SDS011;60383;46.626;18.866;2024-03-08T07:20:19;22.25;;;14.23;;
58071;SDS011;60383;46.626;18.866;2024-03-08T07:22:46;22.42;;;14.07;;
58071;SDS011;60383;46.626;18.866;2024-03-08T07:25:13;22.17;;;14.55;;
58071;SDS011;60383;46.626;18.866;2024-03-08T07:27:50;22.92;;;14.52;;
58071;SDS011;60383;46.626;18.866;2024-03-08T07:30:17;21.08;;;14.57;;
58071;SDS011;60383;46.626;18.866;2024-03-08T07:33:02;21.88;;;14.43;;
58071;SDS011;60383;46.626;18.866;2024-03-08T07:35:28;21.98;;;13.95;;
58071;SDS011;60383;46.626;18.866;2024-03-08T07:37:54;21.15;;;13.77;;
58071;SDS011;60383;46.626;18.866;2024-03-08T07:40:20;21.92;;;14.15;;
58071;SDS011;60383;46.626;18.866;2024-03-08T07:42:46;21.58;;;14.98;;
58071;SDS011;60383;46.626;18.866;2024-03-08T07:45:11;22.80;;;13.43;;
58071;SDS011;60383;46.626;18.866;2024-03-08T07:47:38;20.25;;;13.07;;
58071;SDS011;60383;46.626;18.866;2024-03-08T07:50:03;20.48;;;13.07;;
58071;SDS011;60383;46.626;18.866;2024-03-08T07:52:29;20.85;;;12.60;;
58071;SDS011;60383;46.626;18.866;2024-03-08T07:54:54;21.08;;;13.82;;
58071;SDS011;60383;46.626;18.866;2024-03-08T07:57:20;20.02;;;13.70;;
58071;SDS011;60383;46.626;18.866;2024-03-08T07:59:46;18.30;;;12.13;;
58071;SDS011;60383;46.626;18.866;2024-03-08T08:02:11;20.38;;;13.00;;
58071;SDS011;60383;46.626;18.866;2024-03-08T08:04:36;16.05;;;11.00;;
58071;SDS011;60383;46.626;18.866;2024-03-08T08:07:03;14.60;;;9.55;;
58071;SDS011;60383;46.626;18.866;2024-03-08T08:09:29;12.82;;;9.18;;
58071;SDS011;60383;46.626;18.866;2024-03-08T08:11:59;14.63;;;9.95;;
58071;SDS011;60383;46.626;18.866;2024-03-08T08:14:27;14.55;;;10.80;;
58071;SDS011;60383;46.626;18.866;2024-03-08T08:16:53;16.85;;;10.85;;
58071;SDS011;60383;46.626;18.866;2024-03-08T08:19:20;17.25;;;11.32;;
58071;SDS011;60383;46.626;18.866;2024-03-08T08:21:46;14.90;;;10.65;;
58071;SDS011;60383;46.626;18.866;2024-03-08T08:24:12;14.40;;;10.35;;
58071;SDS011;60383;46.626;18.866;2024-03-08T08:26:37;15.45;;;10.77;;
58071;SDS011;60383;46.626;18.866;2024-03-08T08:29:03;15.63;;;10.98;;
58071;SDS011;60383;46.626;18.866;2024-03-08T08:31:29;12.65;;;9.52;;
58071;SDS011;60383;46.626;18.866;2024-03-08T08:33:56;12.80;;;9.00;;
58071;SDS011;60383;46.626;18.866;2024-03-08T08:36:25;14.27;;;9.63;;
58071;SDS011;60383;46.626;18.866;2024-03-08T08:38:50;12.55;;;9.02;;
58071;SDS011;60383;46.626;18.866;2024-03-08T08:41:19;12.75;;;9.57;;
58071;SDS011;60383;46.626;18.866;2024-03-08T08:43:46;14.07;;;9.35;;
58071;SDS011;60383;46.626;18.866;2024-03-08T08:46:11;12.30;;;9.20;;
58071;SDS011;60383;46.626;18.866;2024-03-08T08:48:39;11.63;;;8.77;;
58071;SDS011;60383;46.626;18.866;2024-03-08T08:51:10;12.30;;;9.20;;
58071;SDS011;60383;46.626;18.866;2024-03-08T08:53:40;13.18;;;9.82;;
58071;SDS011;60383;46.626;18.866;2024-03-08T08:56:11;12.65;;;9.60;;
58071;SDS011;60383;46.626;18.866;2024-03-08T08:58:41;13.32;;;9.70;;
58071;SDS011;60383;46.626;18.866;2024-03-08T09:01:10;13.40;;;9.63;;
58071;SDS011;60383;46.626;18.866;2024-03-08T09:03:36;13.90;;;9.70;;
58071;SDS011;60383;46.626;18.866;2024-03-08T09:06:05;12.75;;;9.98;;
58071;SDS011;60383;46.626;18.866;2024-03-08T09:08:30;13.82;;;10.20;;
58071;SDS011;60383;46.626;18.866;2024-03-08T09:10:56;11.40;;;8.82;;
58071;SDS011;60383;46.626;18.866;2024-03-08T09:13:21;14.38;;;9.65;;
58071;SDS011;60383;46.626;18.866;2024-03-08T09:15:48;14.73;;;9.73;;
58071;SDS011;60383;46.626;18.866;2024-03-08T09:18:13;13.25;;;10.43;;
58071;SDS011;60383;46.626;18.866;2024-03-08T09:20:39;14.05;;;10.25;;
58071;SDS011;60383;46.626;18.866;2024-03-08T09:23:06;16.48;;;10.25;;
58071;SDS011;60383;46.626;18.866;2024-03-08T09:25:33;13.80;;;10.13;;
58071;SDS011;60383;46.626;18.866;2024-03-08T09:27:59;14.02;;;10.27;;
58071;SDS011;60383;46.626;18.866;2024-03-08T09:30:24;14.90;;;10.90;;
58071;SDS011;60383;46.626;18.866;2024-03-08T09:32:50;13.70;;;9.30;;
58071;SDS011;60383;46.626;18.866;2024-03-08T09:35:16;12.85;;;9.48;;
58071;SDS011;60383;46.626;18.866;2024-03-08T09:37:41;12.55;;;9.45;;
58071;SDS011;60383;46.626;18.866;2024-03-08T09:40:07;12.35;;;9.65;;
58071;SDS011;60383;46.626;18.866;2024-03-08T09:42:40;15.13;;;11.30;;
58071;SDS011;60383;46.626;18.866;2024-03-08T09:45:10;16.67;;;12.00;;
58071;SDS011;60383;46.626;18.866;2024-03-08T09:47:40;17.73;;;12.45;;
58071;SDS011;60383;46.626;18.866;2024-03-08T09:50:07;17.55;;;13.30;;
58071;SDS011;60383;46.626;18.866;2024-03-08T09:52:38;18.88;;;11.32;;
58071;SDS011;60383;46.626;18.866;2024-03-08T09:55:05;15.68;;;11.48;;
58071;SDS011;60383;46.626;18.866;2024-03-08T09:57:32;18.08;;;12.30;;
58071;SDS011;60383;46.626;18.866;2024-03-08T09:59:59;14.32;;;10.57;;
58071;SDS011;60383;46.626;18.866;2024-03-08T10:02:24;16.58;;;11.00;;
58071;SDS011;60383;46.626;18.866;2024-03-08T10:04:51;15.18;;;11.10;;
58071;SDS011;60383;46.626;18.866;2024-03-08T10:07:18;18.13;;;12.02;;
58071;SDS011;60383;46.626;18.866;2024-03-08T10:09:44;15.82;;;11.82;;
58071;SDS011;60383;46.626;18.866;2024-03-08T10:12:15;14.75;;;10.88;;
58071;SDS011;60383;46.626;18.866;2024-03-08T10:14:42;15.23;;;11.13;;
58071;SDS011;60383;46.626;18.866;2024-03-08T10:17:08;15.68;;;10.85;;
58071;SDS011;60383;46.626;18.866;2024-03-08T10:19:33;14.63;;;10.90;;
58071;SDS011;60383;46.626;18.866;2024-03-08T10:21:59;14.65;;;10.93;;
58071;SDS011;60383;46.626;18.866;2024-03-08T10:24:25;15.55;;;11.15;;
58071;SDS011;60383;46.626;18.866;2024-03-08T10:26:51;14.50;;;11.38;;
58071;SDS011;60383;46.626;18.866;2024-03-08T10:29:18;13.90;;;9.82;;
58071;SDS011;60383;46.626;18.866;2024-03-08T10:31:44;10.85;;;8.82;;
58071;SDS011;60383;46.626;18.866;2024-03-08T10:34:10;13.82;;;9.63;;
58071;SDS011;60383;46.626;18.866;2024-03-08T10:36:36;10.43;;;8.23;;
58071;SDS011;60383;46.626;18.866;2024-03-08T10:39:06;11.38;;;8.70;;
58071;SDS011;60383;46.626;18.866;2024-03-08T10:41:42;11.35;;;8.73;;
58071;SDS011;60383;46.626;18.866;2024-03-08T10:44:21;11.38;;;8.48;;
58071;SDS011;60383;46.626;18.866;2024-03-08T10:47:01;11.10;;;8.23;;
58071;SDS011;60383;46.626;18.866;2024-03-08T10:49:37;10.48;;;8.60;;
58071;SDS011;60383;46.626;18.866;2024-03-08T10:52:08;13.35;;;8.88;;
58071;SDS011;60383;46.626;18.866;2024-03-08T10:54:37;11.82;;;9.27;;
58071;SDS011;60383;46.626;18.866;2024-03-08T10:57:05;13.07;;;9.55;;
58071;SDS011;60383;46.626;18.866;2024-03-08T10:59:33;12.27;;;9.35;;
58071;SDS011;60383;46.626;18.866;2024-03-08T11:02:00;12.88;;;9.65;;
58071;SDS011;60383;46.626;18.866;2024-03-08T11:04:25;15.13;;;9.88;;
58071;SDS011;60383;46.626;18.866;2024-03-08T11:06:54;12.27;;;9.40;;
58071;SDS011;60383;46.626;18.866;2024-03-08T11:09:31;12.88;;;9.43;;
58071;SDS011;60383;46.626;18.866;2024-03-08T11:15:09;14.50;;;10.77;;
58071;SDS011;60383;46.626;18.866;2024-03-08T11:20:10;12.93;;;10.02;;
58071;SDS011;60383;46.626;18.866;2024-03-08T11:22:41;15.07;;;10.68;;
58071;SDS011;60383;46.626;18.866;2024-03-08T11:25:30;12.90;;;10.32;;
58071;SDS011;60383;46.626;18.866;2024-03-08T11:28:10;14.27;;;10.55;;
58071;SDS011;60383;46.626;18.866;2024-03-08T11:33:24;13.50;;;9.95;;
58071;SDS011;60383;46.626;18.866;2024-03-08T11:35:52;16.92;;;10.88;;
58071;SDS011;60383;46.626;18.866;2024-03-08T11:38:17;14.48;;;10.85;;
58071;SDS011;60383;46.626;18.866;2024-03-08T11:40:45;15.68;;;10.50;;
58071;SDS011;60383;46.626;18.866;2024-03-08T11:43:15;12.93;;;9.88;;
58071;SDS011;60383;46.626;18.866;2024-03-08T11:45:41;14.23;;;10.27;;
58071;SDS011;60383;46.626;18.866;2024-03-08T11:48:07;13.27;;;9.82;;
58071;SDS011;60383;46.626;18.866;2024-03-08T11:50:32;13.80;;;10.77;;
58071;SDS011;60383;46.626;18.866;2024-03-08T11:53:04;15.25;;;10.57;;
58071;SDS011;60383;46.626;18.866;2024-03-08T11:55:32;15.30;;;10.52;;
58071;SDS011;60383;46.626;18.866;2024-03-08T11:58:01;13.27;;;10.98;;
58071;SDS011;60383;46.626;18.866;2024-03-08T12:00:28;12.60;;;10.30;;
58071;SDS011;60383;46.626;18.866;2024-03-08T12:03:03;14.90;;;11.10;;
58071;SDS011;60383;46.626;18.866;2024-03-08T12:05:30;16.63;;;10.85;;
58071;SDS011;60383;46.626;18.866;2024-03-08T12:07:58;15.82;;;10.52;;
58071;SDS011;60383;46.626;18.866;2024-03-08T12:10:27;17.65;;;12.10;;
58071;SDS011;60383;46.626;18.866;2024-03-08T12:12:53;19.23;;;12.68;;
58071;SDS011;60383;46.626;18.866;2024-03-08T12:15:24;19.10;;;13.73;;
58071;SDS011;60383;46.626;18.866;2024-03-08T12:17:52;17.98;;;12.98;;
58071;SDS011;60383;46.626;18.866;2024-03-08T12:20:23;20.13;;;13.98;;
58071;SDS011;60383;46.626;18.866;2024-03-08T12:22:56;18.45;;;11.95;;
58071;SDS011;60383;46.626;18.866;2024-03-08T12:25:26;18.08;;;12.40;;
58071;SDS011;60383;46.626;18.866;2024-03-08T12:28:07;18.27;;;12.20;;
58071;SDS011;60383;46.626;18.866;2024-03-08T12:30:45;17.83;;;12.75;;
58071;SDS011;60383;46.626;18.866;2024-03-08T12:33:11;19.48;;;13.10;;
58071;SDS011;60383;46.626;18.866;2024-03-08T12:35:38;17.88;;;12.75;;
58071;SDS011;60383;46.626;18.866;2024-03-08T12:38:03;17.13;;;12.68;;
58071;SDS011;60383;46.626;18.866;2024-03-08T12:40:32;15.57;;;11.88;;
58071;SDS011;60383;46.626;18.866;2024-03-08T12:42:59;16.10;;;11.02;;
58071;SDS011;60383;46.626;18.866;2024-03-08T12:45:26;15.10;;;11.77;;
58071;SDS011;60383;46.626;18.866;2024-03-08T12:47:52;15.55;;;11.85;;
58071;SDS011;60383;46.626;18.866;2024-03-08T12:50:21;17.40;;;12.27;;
58071;SDS011;60383;46.626;18.866;2024-03-08T12:52:47;17.85;;;13.13;;
58071;SDS011;60383;46.626;18.866;2024-03-08T12:55:13;19.27;;;13.18;;
58071;SDS011;60383;46.626;18.866;2024-03-08T12:57:41;19.80;;;13.40;;
58071;SDS011;60383;46.626;18.866;2024-03-08T13:00:07;18.88;;;12.98;;
58071;SDS011;60383;46.626;18.866;2024-03-08T13:02:40;20.30;;;13.43;;
58071;SDS011;60383;46.626;18.866;2024-03-08T13:05:07;16.58;;;11.18;;
58071;SDS011;60383;46.626;18.866;2024-03-08T13:07:34;16.83;;;12.00;;
58071;SDS011;60383;46.626;18.866;2024-03-08T13:10:01;17.83;;;12.52;;
58071;SDS011;60383;46.626;18.866;2024-03-08T13:12:26;16.73;;;11.77;;
58071;SDS011;60383;46.626;18.866;2024-03-08T13:14:52;16.83;;;11.80;;
58071;SDS011;60383;46.626;18.866;2024-03-08T13:17:21;16.23;;;11.32;;
58071;SDS011;60383;46.626;18.866;2024-03-08T13:19:47;16.52;;;11.65;;
58071;SDS011;60383;46.626;18.866;2024-03-08T13:22:13;16.70;;;11.70;;
58071;SDS011;60383;46.626;18.866;2024-03-08T13:24:42;17.83;;;12.35;;
58071;SDS011;60383;46.626;18.866;2024-03-08T13:27:08;15.90;;;11.50;;
58071;SDS011;60383;46.626;18.866;2024-03-08T13:29:47;16.70;;;11.20;;
58071;SDS011;60383;46.626;18.866;2024-03-08T13:32:15;18.23;;;12.65;;
58071;SDS011;60383;46.626;18.866;2024-03-08T13:34:44;18.25;;;12.10;;
58071;SDS011;60383;46.626;18.866;2024-03-08T13:37:10;15.93;;;11.30;;
58071;SDS011;60383;46.626;18.866;2024-03-08T13:39:37;19.42;;;12.75;;
58071;SDS011;60383;46.626;18.866;2024-03-08T13:42:09;20.00;;;12.75;;
58071;SDS011;60383;46.626;18.866;2024-03-08T13:44:38;20.10;;;13.93;;
58071;SDS011;60383;46.626;18.866;2024-03-08T13:47:11;22.10;;;14.13;;
58071;SDS011;60383;46.626;18.866;2024-03-08T13:49:39;24.40;;;13.98;;
58071;SDS011;60383;46.626;18.866;2024-03-08T13:52:05;22.05;;;14.02;;
58071;SDS011;60383;46.626;18.866;2024-03-08T13:54:33;21.20;;;15.30;;
58071;SDS011;60383;46.626;18.866;2024-03-08T13:57:00;22.80;;;15.50;;
58071;SDS011;60383;46.626;18.866;2024-03-08T13:59:26;22.77;;;14.13;;
58071;SDS011;60383;46.626;18.866;2024-03-08T14:01:54;22.25;;;14.80;;
58071;SDS011;60383;46.626;18.866;2024-03-08T14:04:20;21.02;;;13.98;;
58071;SDS011;60383;46.626;18.866;2024-03-08T14:06:46;23.02;;;14.10;;
58071;SDS011;60383;46.626;18.866;2024-03-08T14:09:12;22.73;;;14.50;;
58071;SDS011;60383;46.626;18.866;2024-03-08T14:11:44;22.83;;;14.77;;
58071;SDS011;60383;46.626;18.866;2024-03-08T14:14:10;24.25;;;15.35;;
58071;SDS011;60383;46.626;18.866;2024-03-08T14:16:38;22.17;;;13.98;;
58071;SDS011;60383;46.626;18.866;2024-03-08T14:19:04;20.95;;;13.85;;